Time;durP1;ratioP1;P1;durP2;ratioP2;P2;SDS_P1;SDS_P2;PMS_P1;PMS_P2;Temp;Humidity;BMP_temperature;BMP_pressure;BME280_temperature;BME280_humidity;BME280_pressure;Samples;Min_cycle;Max_cycle;Signal;HPM_P1;HPM_P2
2022/07/02 00:01:43;;;;;;;;;;;;;;;15.83;100.00;98971.72;5075357;28;19932;-84
2022/07/02 00:04:12;;;;;;;;;;;;;;;15.50;100.00;98977.00;5074209;28;19934;-84
2022/07/02 00:06:40;;;;;;;;;;;;;;;15.84;100.00;98968.44;5090960;28;19924;-84
2022/07/02 00:09:08;;;;;;;;;;;;;;;15.43;100.00;98971.66;5057687;28;19935;-84
2022/07/02 00:11:37;;;;;;;;;;;;;;;15.67;100.00;98958.66;5073983;28;20357;-84
2022/07/02 00:14:04;;;;;;;;;;;;;;;15.65;100.00;98961.16;5074219;28;19932;-84
2022/07/02 00:16:31;;;;;;;;;;;;;;;15.29;100.00;98960.06;5073672;28;19940;-83
2022/07/02 00:18:59;;;;;;;;;;;;;;;15.56;100.00;98954.66;5107621;28;20417;-84
2022/07/02 00:21:27;;;;;;;;;;;;;;;15.73;100.00;98945.56;5090848;28;19956;-84
2022/07/02 00:23:54;;;;;;;;;;;;;;;15.77;100.00;98943.38;5073812;28;19932;-84
2022/07/02 00:26:31;;;;;;;;;;;;;;;15.53;100.00;98953.56;5074072;28;19932;-84
2022/07/02 00:29:20;;;;;;;;;;;;;;;15.19;100.00;98955.63;5090517;28;19929;-84
2022/07/02 00:31:49;;;;;;;;;;;;;;;15.74;100.00;98949.94;5057381;28;20337;-84
2022/07/02 00:34:17;;;;;;;;;;;;;;;15.32;100.00;98951.50;5057439;28;20011;-83
2022/07/02 00:36:44;;;;;;;;;;;;;;;15.57;100.00;98959.06;5073842;28;19931;-84
2022/07/02 00:39:12;;;;;;;;;;;;;;;15.39;100.00;98958.91;5073661;28;20298;-84
2022/07/02 00:41:39;;;;;;;;;;;;;;;16.01;100.00;98944.44;5090212;28;20310;-84
2022/07/02 00:44:07;;;;;;;;;;;;;;;15.07;100.00;98950.84;5090248;28;19925;-84
2022/07/02 00:46:35;;;;;;;;;;;;;;;15.65;100.00;98941.44;5073551;28;19925;-84
2022/07/02 00:49:02;;;;;;;;;;;;;;;15.72;100.00;98943.19;5074759;28;19932;-84
2022/07/02 00:51:32;;;;;;;;;;;;;;;15.10;100.00;98942.25;5090135;28;19931;-84
2022/07/02 00:53:59;;;;;;;;;;;;;;;15.58;100.00;98938.91;5090099;28;19924;-84
2022/07/02 00:56:26;;;;;;;;;;;;;;;15.55;100.00;98944.66;5056809;28;20267;-84
2022/07/02 00:58:53;;;;;;;;;;;;;;;15.67;100.00;98924.88;5073083;28;19967;-84
2022/07/02 01:01:20;;;;;;;;;;;;;;;16.01;100.00;98930.34;5072896;28;19976;-84
2022/07/02 01:03:49;;;;;;;;;;;;;;;14.94;100.00;98921.94;5088918;28;20066;-84
2022/07/02 01:06:17;;;;;;;;;;;;;;;15.46;100.00;98919.25;5056901;28;20286;-84
2022/07/02 01:11:32;;;;;;;;;;;;;;;15.60;100.00;98925.13;5071273;28;20276;-84
2022/07/02 01:13:59;;;;;;;;;;;;;;;15.61;100.00;98914.66;5055987;28;19928;-84
2022/07/02 01:16:26;;;;;;;;;;;;;;;15.56;100.00;98916.03;5073081;28;19925;-84
2022/07/02 01:18:53;;;;;;;;;;;;;;;15.49;100.00;98918.34;5072871;28;20264;-84
2022/07/02 01:21:20;;;;;;;;;;;;;;;15.46;100.00;98919.25;5072640;28;19924;-84
2022/07/02 01:23:47;;;;;;;;;;;;;;;15.19;100.00;98928.25;5106454;28;19947;-84
2022/07/02 01:26:15;;;;;;;;;;;;;;;15.25;100.00;98914.41;5072773;28;19931;-84
2022/07/02 01:28:42;;;;;;;;;;;;;;;15.10;100.00;98914.13;5072421;28;20363;-84
2022/07/02 01:31:09;;;;;;;;;;;;;;;14.77;100.00;98918.53;5106285;28;19925;-84
2022/07/02 01:33:36;;;;;;;;;;;;;;;14.63;100.00;98902.13;5106549;28;19925;-84
2022/07/02 01:36:03;;;;;;;;;;;;;;;14.83;100.00;98899.06;5056196;28;19924;-84
2022/07/02 01:38:30;;;;;;;;;;;;;;;15.12;100.00;98913.66;5073831;28;19925;-84
2022/07/02 01:41:38;;;;;;;;;;;;;;;14.98;100.00;98900.88;5088974;28;19947;-84
2022/07/02 01:43:45;;;;;;;;;;;;;;;14.64;100.00;98900.13;5055426;28;20014;-84
2022/07/02 01:46:12;;;;;;;;;;;;;;;14.82;100.00;98903.91;5055984;28;19931;-84
2022/07/02 01:48:39;;;;;;;;;;;;;;;15.13;100.00;98901.94;5065612;28;19929;-84
2022/07/02 01:51:06;;;;;;;;;;;;;;;15.01;100.00;98904.84;5050418;28;20019;-84
2022/07/02 01:53:33;;;;;;;;;;;;;;;14.90;100.00;98907.25;5051744;28;19931;-84
2022/07/02 01:56:01;;;;;;;;;;;;;;;14.67;100.00;98911.25;5068498;28;19929;-84
2022/07/02 01:58:27;;;;;;;;;;;;;;;14.76;100.00;98908.53;5053067;28;19924;-84
2022/07/02 02:00:55;;;;;;;;;;;;;;;14.15;100.00;98908.97;5053361;28;19970;-84
2022/07/02 02:03:22;;;;;;;;;;;;;;;14.61;100.00;98906.66;5068614;28;19924;-84
2022/07/02 02:05:51;;;;;;;;;;;;;;;14.38;100.00;98903.00;5053324;28;19931;-84
2022/07/02 02:08:18;;;;;;;;;;;;;;;14.62;100.00;98894.94;5068935;28;20338;-84
2022/07/02 02:10:45;;;;;;;;;;;;;;;14.61;100.00;98892.59;5085039;28;19932;-83
2022/07/02 02:13:12;;;;;;;;;;;;;;;14.37;100.00;98903.47;5085534;28;20380;-83
2022/07/02 02:15:40;;;;;;;;;;;;;;;14.43;100.00;98894.00;5085175;28;20410;-83
2022/07/02 02:18:07;;;;;;;;;;;;;;;14.59;100.00;98889.44;5051813;28;19952;-84
2022/07/02 02:20:34;;;;;;;;;;;;;;;14.43;100.00;98887.59;5068224;28;20283;-84
2022/07/02 02:23:04;;;;;;;;;;;;;;;14.28;100.00;98880.88;5051883;28;19928;-84
2022/07/02 02:25:31;;;;;;;;;;;;;;;14.43;100.00;98894.00;5051599;28;19936;-84
2022/07/02 02:27:59;;;;;;;;;;;;;;;14.67;100.00;98880.31;5053091;28;19925;-84
2022/07/02 02:30:26;;;;;;;;;;;;;;;14.29;100.00;98876.81;5084996;28;20394;-84
2022/07/02 02:33:24;;;;;;;;;;;;;;;14.40;100.00;98885.69;5090627;28;19966;-84
2022/07/02 02:35:51;;;;;;;;;;;;;;;14.30;100.00;98890.44;5089271;28;19932;-83
2022/07/02 02:38:18;;;;;;;;;;;;;;;14.61;100.00;98870.91;5072502;28;20279;-83
2022/07/02 02:40:45;;;;;;;;;;;;;;;14.56;100.00;98874.28;5090104;28;20038;-84
2022/07/02 02:43:12;;;;;;;;;;;;;;;14.60;100.00;98860.88;5072560;28;19935;-84
2022/07/02 02:45:40;;;;;;;;;;;;;;;14.39;100.00;98867.25;5106074;28;20524;-84
2022/07/02 02:48:07;;;;;;;;;;;;;;;14.07;100.00;98851.44;5089254;28;19924;-84
2022/07/02 02:50:35;;;;;;;;;;;;;;;13.62;100.00;98861.34;5088918;28;19976;-84
2022/07/02 02:53:03;;;;;;;;;;;;;;;14.12;100.00;98855.69;5106036;28;19924;-84
2022/07/02 02:55:31;;;;;;;;;;;;;;;14.07;100.00;98848.63;5088826;28;19931;-84
2022/07/02 02:57:58;;;;;;;;;;;;;;;14.30;100.00;98855.91;5089022;28;19930;-84
2022/07/02 03:00:27;;;;;;;;;;;;;;;14.39;100.00;98858.81;5105785;28;19928;-85
2022/07/02 03:02:54;;;;;;;;;;;;;;;14.02;100.00;98851.22;5090006;28;20371;-84
2022/07/02 03:05:21;;;;;;;;;;;;;;;14.19;100.00;98845.00;5088914;28;20379;-85
2022/07/02 03:07:48;;;;;;;;;;;;;;;13.96;100.00;98847.41;5088722;28;19947;-84
2022/07/02 03:10:15;;;;;;;;;;;;;;;14.08;100.00;98847.41;5105329;28;19928;-84
2022/07/02 03:12:43;;;;;;;;;;;;;;;14.40;100.00;98840.72;5071886;28;20307;-84
2022/07/02 03:15:10;;;;;;;;;;;;;;;14.56;100.00;98851.78;5105706;28;19931;-84
2022/07/02 03:17:37;;;;;;;;;;;;;;;14.03;100.00;98852.78;5071817;28;19924;-84
2022/07/02 03:20:04;;;;;;;;;;;;;;;14.26;100.00;98860.88;5089729;28;19931;-87
2022/07/02 03:22:31;;;;;;;;;;;;;;;14.17;100.00;98849.50;5071689;28;20311;-85
2022/07/02 03:24:58;;;;;;;;;;;;;;;14.20;100.00;98851.41;5088191;28;19931;-86
2022/07/02 03:27:26;;;;;;;;;;;;;;;14.07;100.00;98861.91;5105032;28;20501;-86
2022/07/02 03:29:53;;;;;;;;;;;;;;;14.38;100.00;98852.41;5071416;28;19924;-86
2022/07/02 03:32:20;;;;;;;;;;;;;;;14.42;100.00;98841.03;5070924;28;19924;-87
2022/07/02 03:34:47;;;;;;;;;;;;;;;14.03;100.00;98849.97;5088165;28;19924;-86
2022/07/02 03:37:14;;;;;;;;;;;;;;;14.40;100.00;98838.69;5121917;28;19977;-87
2022/07/02 03:39:41;;;;;;;;;;;;;;;14.63;100.00;98840.28;5070946;28;20509;-87
2022/07/02 03:42:09;;;;;;;;;;;;;;;14.35;100.00;98841.28;5105136;28;19978;-86
2022/07/02 03:44:36;;;;;;;;;;;;;;;14.00;100.00;98862.91;5092073;28;19928;-87
2022/07/02 03:47:03;;;;;;;;;;;;;;;13.94;100.00;98856.28;5074432;28;19952;-86
2022/07/02 03:49:31;;;;;;;;;;;;;;;14.01;100.00;98856.03;5057949;28;20471;-86
2022/07/02 03:51:58;;;;;;;;;;;;;;;13.72;100.00;98846.19;5090760;28;20034;-86
2022/07/02 03:54:25;;;;;;;;;;;;;;;14.03;100.00;98841.56;5091457;28;19928;-86
2022/07/02 03:56:53;;;;;;;;;;;;;;;14.09;100.00;98856.59;5057869;28;19932;-86
2022/07/02 03:59:20;;;;;;;;;;;;;;;14.17;100.00;98853.13;5057871;28;19924;-87
2022/07/02 04:01:47;;;;;;;;;;;;;;;14.36;100.00;98838.03;5090942;28;20390;-86
2022/07/02 04:04:14;;;;;;;;;;;;;;;14.20;100.00;98846.59;5074288;28;20020;-86
2022/07/02 04:06:41;;;;;;;;;;;;;;;14.30;100.00;98844.66;5090805;28;20375;-87
2022/07/02 04:09:08;;;;;;;;;;;;;;;14.59;100.00;98839.63;5073966;28;19925;-87
2022/07/02 04:11:35;;;;;;;;;;;;;;;14.44;100.00;98839.34;5073898;28;20065;-86
2022/07/02 04:14:02;;;;;;;;;;;;;;;14.74;100.00;98840.69;5073943;28;19931;-86
2022/07/02 04:16:30;;;;;;;;;;;;;;;13.96;100.00;98853.03;5075262;28;19935;-85
2022/07/02 04:18:57;;;;;;;;;;;;;;;14.72;100.00;98836.78;5090524;28;20458;-87
2022/07/02 04:21:38;;;;;;;;;;;;;;;14.98;100.00;98839.00;5073553;28;19942;-86
2022/07/02 04:24:05;;;;;;;;;;;;;;;15.01;100.00;98849.34;5057387;28;19924;-87
2022/07/02 04:26:32;;;;;;;;;;;;;;;15.13;100.00;98850.53;5073893;28;19931;-87
2022/07/02 04:28:59;;;;;;;;;;;;;;;15.07;100.00;98841.88;5057394;28;19928;-88
2022/07/02 04:31:27;;;;;;;;;;;;;;;14.43;100.00;98849.00;5073322;28;20031;-87
2022/07/02 04:33:54;;;;;;;;;;;;;;;14.52;100.00;98853.94;5073560;28;20011;-87
2022/07/02 04:36:21;;;;;;;;;;;;;;;14.96;100.00;98852.75;5107115;28;20309;-88
2022/07/02 04:38:49;;;;;;;;;;;;;;;15.04;100.00;98858.91;5024268;28;20027;-88
2022/07/02 04:41:16;;;;;;;;;;;;;;;14.51;100.00;98866.41;5056938;28;20391;-88
2022/07/02 04:43:43;;;;;;;;;;;;;;;14.63;100.00;98856.38;5073701;28;20294;-88
2022/07/02 04:46:11;;;;;;;;;;;;;;;14.71;100.00;98863.34;5056815;28;19932;-88
2022/07/02 04:48:38;;;;;;;;;;;;;;;14.64;100.00;98864.38;5040519;28;19958;-89
2022/07/02 04:51:05;;;;;;;;;;;;;;;14.62;100.00;98854.78;5073135;28;20303;-88
2022/07/02 04:53:32;;;;;;;;;;;;;;;14.47;100.00;98865.75;5090092;28;20357;-89
2022/07/02 04:56:00;;;;;;;;;;;;;;;13.97;100.00;98846.16;5039100;28;19924;-88
2022/07/02 04:58:27;;;;;;;;;;;;;;;14.61;100.00;98864.47;5073251;28;19935;-88
2022/07/02 05:00:54;;;;;;;;;;;;;;;14.75;100.00;98875.22;5072964;28;19924;-87
2022/07/02 05:03:22;;;;;;;;;;;;;;;14.27;100.00;98852.00;5089773;28;20417;-87
2022/07/02 05:05:49;;;;;;;;;;;;;;;14.57;100.00;98867.41;5072809;28;20291;-87
2022/07/02 05:08:16;;;;;;;;;;;;;;;14.77;100.00;98865.09;5089764;28;19924;-87
2022/07/02 05:10:43;;;;;;;;;;;;;;;14.71;100.00;98858.47;5089795;28;19932;-87
2022/07/02 05:13:10;;;;;;;;;;;;;;;14.64;100.00;98853.13;5072872;28;20271;-87
2022/07/02 05:15:40;;;;;;;;;;;;;;;14.58;100.00;98865.38;5072515;28;20019;-87
2022/07/02 05:18:07;;;;;;;;;;;;;;;14.72;100.00;98857.25;5056058;28;20392;-89
2022/07/02 05:20:34;;;;;;;;;;;;;;;14.89;100.00;98841.75;5072468;28;19931;-86
2022/07/02 05:23:01;;;;;;;;;;;;;;;15.00;100.00;98850.59;5106287;28;19924;-86
2022/07/02 05:25:28;;;;;;;;;;;;;;;14.82;100.00;98846.84;5073985;28;19934;-86
2022/07/02 05:27:55;;;;;;;;;;;;;;;14.84;100.00;98839.53;5039590;28;19925;-85
2022/07/02 05:30:22;;;;;;;;;;;;;;;14.91;100.00;98839.28;5072525;28;20268;-85
2022/07/02 05:32:49;;;;;;;;;;;;;;;14.75;100.00;98814.16;5089449;28;19925;-85
2022/07/02 05:35:16;;;;;;;;;;;;;;;14.75;100.00;98825.41;5071751;28;19931;-84
2022/07/02 05:37:43;;;;;;;;;;;;;;;14.63;100.00;98820.59;5073679;28;20355;-85
2022/07/02 05:40:11;;;;;;;;;;;;;;;14.76;100.00;98824.16;5106179;28;19925;-85
2022/07/02 05:42:38;;;;;;;;;;;;;;;14.74;100.00;98817.44;5072154;28;20421;-85
2022/07/02 05:45:05;;;;;;;;;;;;;;;14.98;100.00;98832.59;5072085;28;19925;-85
2022/07/02 05:47:32;;;;;;;;;;;;;;;15.00;100.00;98819.63;5072123;28;20009;-85
2022/07/02 05:50:00;;;;;;;;;;;;;;;14.85;100.00;98818.59;5072010;28;19960;-85
2022/07/02 05:52:27;;;;;;;;;;;;;;;15.13;100.00;98825.19;5072109;28;19931;-85
2022/07/02 05:54:54;;;;;;;;;;;;;;;15.03;100.00;98818.72;5073452;28;19959;-85
2022/07/02 05:57:21;;;;;;;;;;;;;;;15.26;100.00;98825.88;5088936;28;19924;-85
2022/07/02 05:59:48;;;;;;;;;;;;;;;14.96;100.00;98806.94;5071768;28;19928;-84
2022/07/02 06:02:15;;;;;;;;;;;;;;;15.19;100.00;98821.31;5105475;28;19924;-85
2022/07/02 06:04:43;;;;;;;;;;;;;;;15.36;100.00;98808.59;5105527;28;20012;-85
2022/07/02 06:09:56;;;;;;;;;;;;;;;15.05;100.00;98832.31;5071798;28;20394;-85
2022/07/02 06:12:23;;;;;;;;;;;;;;;15.26;100.00;98829.50;5055236;28;20504;-84
2022/07/02 06:14:51;;;;;;;;;;;;;;;15.15;100.00;98826.28;5071635;28;20019;-84
2022/07/02 06:17:18;;;;;;;;;;;;;;;14.97;100.00;98831.81;5088295;28;19928;-84
2022/07/02 06:19:47;;;;;;;;;;;;;;;15.19;100.00;98837.44;5071775;28;19932;-84
2022/07/02 06:22:14;;;;;;;;;;;;;;;15.58;100.00;98831.09;5071741;28;19928;-84
2022/07/02 06:24:42;;;;;;;;;;;;;;;14.90;100.00;98826.47;5108291;27;20014;-84
2022/07/02 06:27:09;;;;;;;;;;;;;;;15.03;100.00;98846.84;5088054;28;19928;-84
2022/07/02 06:29:36;;;;;;;;;;;;;;;14.95;100.00;98844.78;5082157;28;20018;-84
2022/07/02 06:32:04;;;;;;;;;;;;;;;15.05;100.00;98844.38;5068496;28;20287;-84
2022/07/02 06:34:31;;;;;;;;;;;;;;;15.04;100.00;98848.41;5068449;28;19925;-84
2022/07/02 06:36:58;;;;;;;;;;;;;;;15.22;100.00;98854.16;5068651;28;20307;-84
2022/07/02 06:39:25;;;;;;;;;;;;;;;15.41;100.00;98853.06;5018964;28;20006;-84
2022/07/02 06:44:38;;;;;;;;;;;;;;;15.29;100.00;98856.72;5053919;28;20395;-84
2022/07/02 06:47:05;;;;;;;;;;;;;;;15.24;100.00;98856.50;5035594;28;20016;-84
2022/07/02 06:49:33;;;;;;;;;;;;;;;15.46;100.00;98852.47;5069070;28;19978;-85
2022/07/02 06:52:00;;;;;;;;;;;;;;;14.98;100.00;98860.72;5085961;28;20303;-84
2022/07/02 06:54:27;;;;;;;;;;;;;;;15.48;100.00;98857.66;5053444;28;19925;-84
2022/07/02 06:56:54;;;;;;;;;;;;;;;15.72;100.00;98858.69;5085690;28;19925;-85
2022/07/02 06:59:21;;;;;;;;;;;;;;;15.63;100.00;98867.88;5068984;28;19935;-84
2022/07/02 07:01:48;;;;;;;;;;;;;;;15.66;100.00;98875.41;5051257;28;20330;-85
2022/07/02 07:04:35;;;;;;;;;;;;;;;16.18;100.00;98878.13;5052655;28;19971;-85
2022/07/02 07:07:05;;;;;;;;;;;;;;;16.18;100.00;98880.16;5051391;28;19925;-85
2022/07/02 07:09:34;;;;;;;;;;;;;;;16.21;100.00;98877.19;5051036;28;19925;-85
2022/07/02 07:12:04;;;;;;;;;;;;;;;16.27;100.00;98876.59;5051205;28;19971;-85
2022/07/02 07:14:32;;;;;;;;;;;;;;;16.13;100.00;98875.91;5035013;28;19932;-85
2022/07/02 07:16:59;;;;;;;;;;;;;;;16.05;100.00;98874.63;5084302;28;20371;-85
2022/07/02 07:19:27;;;;;;;;;;;;;;;16.42;100.00;98883.97;5053734;28;19975;-85
2022/07/02 07:21:54;;;;;;;;;;;;;;;16.72;100.00;98885.13;5055036;28;19925;-85
2022/07/02 07:24:21;;;;;;;;;;;;;;;16.88;100.00;98879.19;5055113;28;20368;-85
2022/07/02 07:26:48;;;;;;;;;;;;;;;16.89;100.00;98880.78;5071713;28;19929;-85
2022/07/02 07:29:15;;;;;;;;;;;;;;;16.88;100.00;98876.34;5055452;28;19925;-83
2022/07/02 07:31:43;;;;;;;;;;;;;;;16.91;100.00;98876.22;5055684;28;19928;-85
2022/07/02 07:34:10;;;;;;;;;;;;;;;16.86;100.00;98884.50;5054779;28;19925;-85
2022/07/02 07:36:37;;;;;;;;;;;;;;;17.06;100.00;98887.63;5056097;28;20303;-84
2022/07/02 07:39:05;;;;;;;;;;;;;;;16.82;100.00;98878.25;5055744;28;19924;-84
2022/07/02 07:41:33;;;;;;;;;;;;;;;17.31;100.00;98892.97;5054612;28;20016;-83
2022/07/02 07:44:01;;;;;;;;;;;;;;;17.45;100.00;98887.47;5054399;28;20342;-85
2022/07/02 07:46:28;;;;;;;;;;;;;;;17.43;100.00;98883.53;5054763;28;20020;-85
2022/07/02 07:48:56;;;;;;;;;;;;;;;17.49;100.00;98885.25;5054482;28;19924;-86
2022/07/02 07:51:23;;;;;;;;;;;;;;;17.46;100.00;98893.91;5054511;28;19925;-86
2022/07/02 07:53:50;;;;;;;;;;;;;;;17.40;100.00;98890.88;5054353;28;19932;-86
2022/07/02 07:56:18;;;;;;;;;;;;;;;17.49;100.00;98887.31;5087913;28;20399;-87
2022/07/02 07:58:46;;;;;;;;;;;;;;;17.05;100.00;98891.72;5087204;28;19925;-88
2022/07/02 08:01:13;;;;;;;;;;;;;;;16.88;100.00;98901.75;5054474;28;19932;-87
2022/07/02 08:03:40;;;;;;;;;;;;;;;16.87;100.00;98889.69;5054183;28;20022;-87
2022/07/02 08:06:07;;;;;;;;;;;;;;;17.05;100.00;98891.72;5054244;28;19925;-88
2022/07/02 08:08:34;;;;;;;;;;;;;;;16.78;100.00;98905.84;5070824;28;19925;-88
2022/07/02 08:11:02;;;;;;;;;;;;;;;17.00;100.00;98898.78;5037640;28;19932;-90
2022/07/02 08:13:29;;;;;;;;;;;;;;;16.85;100.00;98902.69;5036946;28;20013;-89
2022/07/02 08:15:56;;;;;;;;;;;;;;;16.98;100.00;98904.09;5070518;28;19928;-85
2022/07/02 08:18:23;;;;;;;;;;;;;;;17.02;100.00;98887.03;5055196;28;19931;-83
2022/07/02 08:20:50;;;;;;;;;;;;;;;17.13;100.00;98893.00;5053838;28;19994;-84
2022/07/02 08:23:17;;;;;;;;;;;;;;;17.29;100.00;98896.25;5053930;28;20019;-80
2022/07/02 08:25:44;;;;;;;;;;;;;;;17.99;100.00;98895.75;5059173;28;20378;-85
2022/07/02 08:28:18;;;;;;;;;;;;;;;18.23;100.00;98893.00;5051491;28;20307;-85
2022/07/02 08:31:07;;;;;;;;;;;;;;;18.15;100.00;98882.50;5068047;28;19935;-85
2022/07/02 08:33:34;;;;;;;;;;;;;;;18.33;100.00;98863.41;5054072;28;19924;-85
2022/07/02 08:36:02;;;;;;;;;;;;;;;19.29;100.00;98880.66;5072805;28;19924;-86
2022/07/02 08:38:29;;;;;;;;;;;;;;;20.42;100.00;98862.91;5037019;28;19964;-85
2022/07/02 08:40:56;;;;;;;;;;;;;;;20.70;100.00;98861.25;5070087;28;19947;-83
2022/07/02 08:43:26;;;;;;;;;;;;;;;20.79;100.00;98858.25;5071866;28;19925;-83
2022/07/02 08:45:54;;;;;;;;;;;;;;;21.08;100.00;98855.28;5071697;28;19925;-83
2022/07/02 08:48:23;;;;;;;;;;;;;;;22.15;100.00;98854.47;5071757;28;20011;-84
2022/07/02 08:50:51;;;;;;;;;;;;;;;22.77;100.00;98842.94;5072437;28;19928;-85
2022/07/02 08:53:18;;;;;;;;;;;;;;;22.93;100.00;98847.91;5071192;28;20383;-84
2022/07/02 08:55:47;;;;;;;;;;;;;;;22.20;100.00;98839.53;5071662;28;19931;-86
2022/07/02 08:58:14;;;;;;;;;;;;;;;21.94;100.00;98827.44;5054730;28;19924;-81
2022/07/02 09:00:41;;;;;;;;;;;;;;;21.42;100.00;98832.38;5071995;28;19962;-90
2022/07/02 09:03:09;;;;;;;;;;;;;;;22.01;100.00;98838.34;5054424;28;19932;-83
2022/07/02 09:05:39;;;;;;;;;;;;;;;21.01;100.00;98842.28;5071550;28;20019;-79
2022/07/02 09:08:07;;;;;;;;;;;;;;;20.71;100.00;98857.13;5073338;28;19925;-80
2022/07/02 09:10:35;;;;;;;;;;;;;;;21.62;100.00;98851.44;5073733;28;20283;-80
2022/07/02 09:13:02;;;;;;;;;;;;;;;21.51;100.00;98851.31;5074254;28;19924;-80
2022/07/02 09:15:31;;;;;;;;;;;;;;;20.66;100.00;98850.09;5107301;28;20026;-80
2022/07/02 09:17:58;;;;;;;;;;;;;;;20.24;100.00;98846.16;5074724;28;19924;-80
2022/07/02 09:20:25;;;;;;;;;;;;;;;20.37;100.00;98846.59;5074456;28;20267;-79
2022/07/02 09:22:53;;;;;;;;;;;;;;;20.83;100.00;98847.47;5074621;28;19932;-79
2022/07/02 09:25:21;;;;;;;;;;;;;;;20.20;100.00;98862.59;5074459;28;19932;-79
2022/07/02 09:27:56;;;;;;;;;;;;;;;19.43;100.00;98850.75;5072921;28;20498;-79
2022/07/02 09:30:23;;;;;;;;;;;;;;;20.36;100.00;98848.66;5074391;28;20253;-79
2022/07/02 09:33:28;;;;;;;;;;;;;;;21.17;100.00;98840.91;5072936;28;19924;-79
2022/07/02 09:35:41;;;;;;;;;;;;;;;21.01;100.00;98852.84;5074286;28;19969;-79
2022/07/02 09:38:11;;;;;;;;;;;;;;;21.71;100.00;98825.66;5073089;28;20457;-79
2022/07/02 09:40:50;;;;;;;;;;;;;;;20.77;100.00;98843.75;5089535;28;20355;-79
2022/07/02 09:43:32;;;;;;;;;;;;;;;20.96;100.00;98850.75;5074315;28;19924;-79
2022/07/02 09:46:00;;;;;;;;;;;;;;;20.66;100.00;98850.09;5056609;28;20283;-79
2022/07/02 09:48:27;;;;;;;;;;;;;;;20.82;100.00;98858.06;5072796;28;19926;-79
2022/07/02 09:50:54;;;;;;;;;;;;;;;20.11;100.00;98854.19;5074040;28;19928;-79
2022/07/02 09:53:21;;;;;;;;;;;;;;;20.15;100.00;98851.94;5074134;28;19924;-79
2022/07/02 09:55:50;;;;;;;;;;;;;;;20.80;100.00;98857.75;5073966;28;19924;-79
2022/07/02 09:58:27;;;;;;;;;;;;;;;20.12;100.00;98862.19;5074118;28;19925;-80
2022/07/02 10:00:54;;;;;;;;;;;;;;;19.84;100.00;98858.16;5072806;28;19924;-79
2022/07/02 10:03:22;;;;;;;;;;;;;;;20.81;100.00;98855.72;5074119;28;20010;-79
2022/07/02 10:05:50;;;;;;;;;;;;;;;20.47;100.00;98870.72;5106663;28;19958;-79
2022/07/02 10:08:18;;;;;;;;;;;;;;;20.51;100.00;98862.78;5056233;28;19928;-79
2022/07/02 10:10:45;;;;;;;;;;;;;;;21.08;100.00;98858.13;5073766;28;20350;-80
2022/07/02 10:13:13;;;;;;;;;;;;;;;20.98;100.00;98848.97;5073767;28;19924;-80
2022/07/02 10:15:51;;;;;;;;;;;;;;;21.46;100.00;98852.06;5073853;28;19950;-78
2022/07/02 10:18:18;;;;;;;;;;;;;;;21.67;100.00;98852.75;5056219;28;19924;-78
2022/07/02 10:20:46;;;;;;;;;;;;;;;21.47;100.00;98853.63;5056137;28;20336;-78
2022/07/02 10:23:14;;;;;;;;;;;;;;;21.34;100.00;98841.88;5073864;28;20020;-78
2022/07/02 10:25:43;;;;;;;;;;;;;;;21.01;100.00;98864.22;5073588;28;19932;-78
2022/07/02 10:28:10;;;;;;;;;;;;;;;20.98;100.00;98851.03;5072302;28;20017;-78
2022/07/02 10:30:37;;;;;;;;;;;;;;;21.27;100.00;98853.66;5055787;28;19990;-79
2022/07/02 10:33:10;;;;;;;;;;;;;;;21.45;100.00;98853.34;5073502;28;19924;-79
2022/07/02 10:35:38;;;;;;;;;;;;;;;21.09;100.00;98871.81;5073251;28;20299;-79
2022/07/02 10:38:06;;;;;;;;;;;;;;;21.27;100.00;98868.66;5073096;28;19925;-79
2022/07/02 10:40:44;;;;;;;;;;;;;;;20.99;100.00;98870.41;5073420;28;19924;-79
2022/07/02 10:43:16;;;;;;;;;;;;;;;20.72;100.00;98878.56;5073278;28;19963;-79
2022/07/02 10:46:00;;;;;;;;;;;;;;;20.83;100.00;98875.84;5073468;28;19935;-79
2022/07/02 10:48:27;;;;;;;;;;;;;;;20.78;100.00;98868.06;5073451;28;19931;-79
2022/07/02 10:50:55;;;;;;;;;;;;;;;20.92;100.00;98872.88;5073119;28;20031;-79
2022/07/02 10:53:24;;;;;;;;;;;;;;;20.55;100.00;98883.22;5072785;28;20344;-79
2022/07/02 10:55:51;;;;;;;;;;;;;;;20.71;100.00;98879.81;5077413;28;19924;-79
2022/07/02 10:58:19;;;;;;;;;;;;;;;21.00;100.00;98871.19;5077657;28;20274;-79
2022/07/02 11:00:47;;;;;;;;;;;;;;;19.95;100.00;98881.00;5110149;28;19924;-79
2022/07/02 11:03:14;;;;;;;;;;;;;;;19.32;100.00;98890.22;5076148;28;19932;-79
2022/07/02 11:05:56;;;;;;;;;;;;;;;19.12;100.00;98882.34;5074051;28;19925;-88
2022/07/02 11:08:45;;;;;;;;;;;;;;;19.32;100.00;98893.84;5074192;28;19924;-83
2022/07/02 11:11:12;;;;;;;;;;;;;;;18.65;100.00;98888.06;5074493;28;20066;-80
2022/07/02 11:13:56;;;;;;;;;;;;;;;18.69;100.00;98896.38;5090145;28;20031;-82
2022/07/02 11:16:29;;;;;;;;;;;;;;;19.24;100.00;98886.16;5087238;28;20005;-82
2022/07/02 11:19:00;;;;;;;;;;;;;;;19.77;100.00;98877.59;5072609;28;19925;-82
2022/07/02 11:21:28;;;;;;;;;;;;;;;20.11;100.00;98874.81;5088464;28;20297;-81
2022/07/02 11:23:56;;;;;;;;;;;;;;;20.31;100.00;98863.53;5074749;28;19924;-81
2022/07/02 11:26:27;;;;;;;;;;;;;;;20.63;100.00;98870.19;5072728;28;19928;-87
2022/07/02 11:28:55;;;;;;;;;;;;;;;20.46;100.00;98863.50;5073709;28;19930;-83
2022/07/02 11:31:23;;;;;;;;;;;;;;;20.51;100.00;98871.28;5073140;28;19925;-81
2022/07/02 11:33:52;;;;;;;;;;;;;;;20.38;100.00;98862.34;5105155;28;19934;-82
2022/07/02 11:36:23;;;;;;;;;;;;;;;20.35;100.00;98869.00;5060283;28;19990;-79
2022/07/02 11:38:51;;;;;;;;;;;;;;;19.88;100.00;98872.13;5082602;28;19928;-81
2022/07/02 11:41:19;;;;;;;;;;;;;;;20.38;100.00;98868.03;5072553;28;19935;-82
2022/07/02 11:43:47;;;;;;;;;;;;;;;20.52;100.00;98872.88;5072984;28;19928;-81
2022/07/02 11:46:17;;;;;;;;;;;;;;;20.78;100.00;98868.06;5093132;28;19930;-81
2022/07/02 11:48:46;;;;;;;;;;;;;;;20.97;100.00;98857.97;5084892;28;20017;-82
2022/07/02 11:51:13;;;;;;;;;;;;;;;20.98;100.00;98865.22;5071977;28;19932;-82
2022/07/02 11:53:41;;;;;;;;;;;;;;;21.22;100.00;98868.59;5081695;28;20012;-81
2022/07/02 11:56:10;;;;;;;;;;;;;;;21.15;100.00;98871.88;5059644;28;19928;-81
2022/07/02 11:58:41;;;;;;;;;;;;;;;21.26;100.00;98867.09;5090895;28;19924;-81
2022/07/02 12:01:17;;;;;;;;;;;;;;;20.66;100.00;98872.03;5092171;28;20385;-78
2022/07/02 12:03:45;;;;;;;;;;;;;;;21.06;100.00;98872.03;5093489;28;19931;-79
2022/07/02 12:06:12;;;;;;;;;;;;;;;20.81;100.00;98867.81;5095981;28;20321;-78
2022/07/02 12:08:40;;;;;;;;;;;;;;;21.06;100.00;98869.19;5096025;28;19977;-78
2022/07/02 12:11:14;;;;;;;;;;;;;;;21.28;100.00;98872.28;5093976;28;19924;-78
2022/07/02 12:13:42;;;;;;;;;;;;;;;21.22;100.00;98874.28;5096073;28;19930;-78
2022/07/02 12:16:10;;;;;;;;;;;;;;;21.07;100.00;98865.06;5096149;28;19947;-78
2022/07/02 12:18:38;;;;;;;;;;;;;;;20.74;100.00;98887.34;5078182;28;19931;-77
2022/07/02 12:21:12;;;;;;;;;;;;;;;21.11;100.00;98880.59;5094536;28;20259;-78
2022/07/02 12:23:47;;;;;;;;;;;;;;;20.71;100.00;98874.94;5094782;28;20018;-78
2022/07/02 12:26:25;;;;;;;;;;;;;;;20.87;100.00;98876.44;5095920;28;19930;-79
2022/07/02 12:31:47;;;;;;;;;;;;;;;21.22;100.00;98888.47;5095848;28;19932;-78
2022/07/02 12:34:15;;;;;;;;;;;;;;;21.05;100.00;98873.31;5094344;28;20020;-78
2022/07/02 12:36:52;;;;;;;;;;;;;;;21.16;100.00;98887.63;5094588;28;20019;-78
2022/07/02 12:39:21;;;;;;;;;;;;;;;21.10;100.00;98881.09;5095800;28;19928;-78
2022/07/02 12:41:48;;;;;;;;;;;;;;;20.69;100.00;98876.72;5095516;28;19931;-78
2022/07/02 12:44:16;;;;;;;;;;;;;;;20.79;100.00;98886.66;5077780;28;19924;-78
2022/07/02 12:46:47;;;;;;;;;;;;;;;21.09;100.00;98888.09;5095841;28;19959;-80
2022/07/02 12:49:15;;;;;;;;;;;;;;;21.17;100.00;98886.38;5096438;28;19931;-79
2022/07/02 12:51:51;;;;;;;;;;;;;;;21.27;100.00;98876.41;5079723;28;19963;-78
2022/07/02 12:54:41;;;;;;;;;;;;;;;20.62;100.00;98877.91;5056526;28;19950;-79